Time;durP1;ratioP1;P1;durP2;ratioP2;P2;SDS_P1;SDS_P2;PMS_P1;PMS_P2;Temp;Humidity;BMP_temperature;BMP_pressure;BME280_temperature;BME280_humidity;BME280_pressure;Samples;Min_cycle;Max_cycle;Signal;HPM_P1;HPM_P2
2022/12/15 00:40:58;;;;;;;4.90;4.00;;;;;;;18.71;43.16;100097.78;5035674;28;20045;-80
2022/12/15 00:43:27;;;;;;;5.50;4.10;;;;;;;18.70;43.04;100096.13;5035762;28;20512;-80
2022/12/15 00:48:42;;;;;;;7.10;4.10;;;;;;;18.71;43.09;100089.75;5036029;28;20052;-79
2022/12/15 00:51:10;;;;;;;5.55;4.32;;;;;;;18.70;42.89;100088.06;5035488;28;20052;-79
2022/12/15 01:25:00;;;;;;;6.22;4.13;;;;;;;18.66;43.17;100121.50;5034613;28;20046;-82
2022/12/15 01:27:27;;;;;;;4.88;3.42;;;;;;;18.67;43.17;100125.84;5033938;28;20477;-80
2022/12/15 01:29:54;;;;;;;5.07;3.72;;;;;;;18.66;42.92;100124.16;5034296;28;20052;-80
2022/12/15 01:32:21;;;;;;;5.28;3.88;;;;;;;18.65;43.11;100133.22;5035139;28;20485;-82
2022/12/15 01:34:49;;;;;;;6.40;3.85;;;;;;;18.65;43.13;100138.56;5035025;28;20049;-82
2022/12/15 01:37:16;;;;;;;4.15;3.67;;;;;;;18.65;43.19;100146.63;5032871;28;20049;-82
2022/12/15 01:42:50;;;;;;;5.15;3.80;;;;;;;18.66;43.23;100150.13;5013829;28;20046;-80
2022/12/15 01:45:46;;;;;;;5.55;3.97;;;;;;;18.65;43.07;100137.72;4997140;28;20060;-80
2022/12/15 01:48:18;;;;;;;5.95;4.47;;;;;;;18.64;42.96;100158.34;4974726;28;20062;-80
2022/12/15 01:50:59;;;;;;;5.63;3.95;;;;;;;18.64;43.26;100152.97;4973471;28;20426;-81
2022/12/15 01:53:32;;;;;;;6.72;4.03;;;;;;;18.64;43.06;100146.78;4959338;28;20058;-81
2022/12/15 01:56:02;;;;;;;5.95;3.75;;;;;;;18.64;43.17;100139.56;4974794;28;20225;-81
2022/12/15 01:58:30;;;;;;;5.57;4.22;;;;;;;18.64;43.16;100125.31;4974634;28;20047;-81
2022/12/15 02:00:57;;;;;;;5.60;4.55;;;;;;;18.63;43.25;100127.13;4974357;28;20069;-80
2022/12/15 02:03:25;;;;;;;7.28;4.13;;;;;;;18.63;43.30;100124.44;4958127;28;20078;-79
2022/12/15 02:05:54;;;;;;;5.75;4.10;;;;;;;18.63;43.28;100121.78;4974510;28;20047;-80
2022/12/15 02:08:21;;;;;;;6.15;3.88;;;;;;;18.62;43.17;100112.03;4977730;28;20058;-80
2022/12/15 02:11:10;;;;;;;6.53;3.97;;;;;;;18.62;43.20;100105.84;4978096;28;20055;-81
2022/12/15 02:14:08;;;;;;;5.05;3.80;;;;;;;18.61;43.13;100104.16;4988006;28;20498;-81
2022/12/15 02:17:02;;;;;;;6.22;4.30;;;;;;;18.62;43.20;100108.53;4997483;28;20078;-81
2022/12/15 02:19:33;;;;;;;6.45;4.35;;;;;;;18.61;43.21;100118.41;4997451;28;20073;-81
2022/12/15 02:22:03;;;;;;;5.65;4.25;;;;;;;18.61;43.34;100115.72;4996754;28;20046;-82
2022/12/15 02:24:54;;;;;;;6.35;4.63;;;;;;;18.60;43.20;100106.00;5004223;28;20056;-80
2022/12/15 02:27:40;;;;;;;5.22;4.28;;;;;;;18.59;43.35;100104.28;5039203;28;20041;-80
2022/12/15 02:30:15;;;;;;;6.22;4.43;;;;;;;18.60;43.30;100102.47;5038556;28;20050;-81
2022/12/15 02:32:55;;;;;;;5.90;4.38;;;;;;;18.59;43.23;100104.28;5038466;28;20056;-81
2022/12/15 02:35:52;;;;;;;5.45;3.75;;;;;;;18.59;43.34;100136.44;5037689;28;20400;-80
2022/12/15 02:38:35;;;;;;;5.38;3.90;;;;;;;18.59;43.19;100157.91;4980561;28;20062;-80
2022/12/15 02:41:05;;;;;;;6.18;4.13;;;;;;;18.58;43.40;100169.63;4980954;28;20050;-79
2022/12/15 02:43:37;;;;;;;5.50;3.90;;;;;;;18.58;43.23;100164.25;4979602;28;20050;-80
2022/12/15 02:46:30;;;;;;;5.17;4.03;;;;;;;18.58;43.25;100168.78;4997348;28;20050;-80
2022/12/15 02:49:17;;;;;;;6.20;4.45;;;;;;;18.58;43.32;100158.06;4997102;28;20284;-80
2022/12/15 02:52:01;;;;;;;5.30;4.07;;;;;;;18.57;43.32;100141.13;4996757;28;20077;-80
2022/12/15 02:55:06;;;;;;;7.03;5.15;;;;;;;18.56;43.22;100135.91;4996278;28;20449;-80
2022/12/15 02:57:41;;;;;;;5.50;4.10;;;;;;;18.56;43.09;100134.09;4964150;28;20050;-80
2022/12/15 03:00:10;;;;;;;5.32;4.20;;;;;;;18.55;43.21;100118.97;4996753;28;20054;-80
2022/12/15 03:02:43;;;;;;;5.63;4.03;;;;;;;18.55;43.17;100121.66;4996034;28;20057;-79
2022/12/15 03:05:12;;;;;;;13.00;4.45;;;;;;;18.55;43.24;100113.59;4996706;28;20051;-79
2022/12/15 03:07:41;;;;;;;6.20;4.30;;;;;;;18.55;43.05;100121.66;4995910;28;20066;-82
2022/12/15 03:10:11;;;;;;;6.35;4.03;;;;;;;18.55;42.85;100113.59;4994253;28;20446;-79
2022/12/15 03:12:39;;;;;;;4.90;3.65;;;;;;;18.54;43.22;100120.81;4995828;28;20046;-79
2022/12/15 03:15:07;;;;;;;5.78;4.43;;;;;;;18.54;43.36;100130.69;5020901;28;20061;-80
2022/12/15 03:17:34;;;;;;;8.02;4.75;;;;;;;18.53;43.48;100129.00;5036669;28;20049;-79
2022/12/15 03:20:02;;;;;;;7.15;4.57;;;;;;;18.53;43.36;100132.53;5036929;28;20090;-79
2022/12/15 03:22:30;;;;;;;6.55;4.35;;;;;;;18.53;43.23;100150.44;5037144;28;20048;-79
2022/12/15 03:24:57;;;;;;;6.22;4.43;;;;;;;18.52;43.25;100154.97;5037488;28;20041;-80
2022/12/15 03:27:25;;;;;;;7.35;4.45;;;;;;;18.53;43.25;100153.13;5037444;28;20053;-79
2022/12/15 03:29:52;;;;;;;4.90;3.95;;;;;;;18.52;43.28;100151.44;5035312;28;20411;-80
2022/12/15 03:32:19;;;;;;;5.55;4.47;;;;;;;18.53;43.25;100166.53;5035666;28;20493;-79
2022/12/15 03:34:47;;;;;;;5.63;4.07;;;;;;;18.52;43.29;100160.31;5037212;28;20045;-80
2022/12/15 03:37:14;;;;;;;6.80;4.32;;;;;;;18.51;43.25;100164.00;5036780;28;20050;-80
2022/12/15 03:39:42;;;;;;;6.10;5.20;;;;;;;18.51;43.31;100168.50;5036099;28;20045;-80
2022/12/15 03:42:09;;;;;;;5.03;4.18;;;;;;;18.51;43.21;100171.16;5037277;28;20072;-79
2022/12/15 03:44:36;;;;;;;5.53;4.18;;;;;;;18.51;43.23;100173.84;5035787;28;20046;-79
2022/12/15 03:47:04;;;;;;;6.30;4.88;;;;;;;18.49;43.20;100170.47;5036304;28;20049;-79
2022/12/15 03:49:32;;;;;;;6.10;4.50;;;;;;;18.50;43.33;100182.88;5035412;28;20050;-79
2022/12/15 03:51:59;;;;;;;5.50;3.97;;;;;;;18.48;43.19;100172.31;5036840;28;20048;-80
2022/12/15 03:54:26;;;;;;;6.07;4.75;;;;;;;18.48;43.26;100176.84;5036672;28;20088;-80
2022/12/15 03:56:54;;;;;;;6.32;4.75;;;;;;;18.48;43.24;100176.84;5036761;28;20056;-80
2022/12/15 03:59:21;;;;;;;5.40;4.45;;;;;;;18.47;43.28;100172.44;5036352;28;20048;-81
2022/12/15 04:01:48;;;;;;;7.05;4.10;;;;;;;18.48;43.33;100179.53;5018941;28;20053;-81
2022/12/15 04:04:16;;;;;;;6.35;4.80;;;;;;;18.47;43.29;100185.84;5036424;28;20037;-80
2022/12/15 04:06:43;;;;;;;7.18;4.80;;;;;;;18.47;43.47;100186.72;5036495;28;20049;-80
2022/12/15 04:09:11;;;;;;;6.68;4.68;;;;;;;18.47;43.29;100185.84;5036306;28;20045;-80
2022/12/15 04:11:38;;;;;;;5.40;4.88;;;;;;;18.47;43.45;100183.16;5036737;28;20064;-81
2022/12/15 04:14:05;;;;;;;7.47;4.90;;;;;;;18.46;43.33;100178.78;5036469;28;20045;-81
2022/12/15 04:16:33;;;;;;;7.57;5.10;;;;;;;18.45;43.45;100177.97;5036666;28;20049;-81
2022/12/15 04:21:46;;;;;;;7.15;5.15;;;;;;;18.44;43.29;100188.81;5035607;28;20447;-81
2022/12/15 05:33:38;;;;;;;6.10;4.70;;;;;;;18.40;43.28;100230.31;5033523;28;20056;-80
2022/12/15 05:36:05;;;;;;;5.88;4.65;;;;;;;18.40;43.18;100235.66;5033911;28;20057;-80
2022/12/15 05:38:33;;;;;;;8.07;5.25;;;;;;;18.39;42.92;100242.84;5034136;28;20046;-80
2022/12/15 05:41:00;;;;;;;5.78;4.95;;;;;;;18.38;43.22;100248.34;5033337;28;20413;-80
2022/12/15 05:43:28;;;;;;;8.00;4.85;;;;;;;18.38;43.30;100232.25;5037865;28;20045;-80
2022/12/15 05:45:56;;;;;;;5.90;4.70;;;;;;;18.37;43.14;100230.56;5039320;28;20041;-79
2022/12/15 05:48:24;;;;;;;6.95;4.68;;;;;;;18.37;43.17;100222.53;5038259;28;20057;-80
2022/12/15 05:50:51;;;;;;;8.48;5.55;;;;;;;18.37;43.22;100230.56;5038494;28;20420;-81
2022/12/15 05:53:19;;;;;;;5.93;5.10;;;;;;;18.36;43.29;100231.56;5038742;28;20076;-81
2022/12/15 05:55:46;;;;;;;6.28;4.60;;;;;;;18.36;43.25;100239.59;5037842;28;20056;-80
2022/12/15 05:58:13;;;;;;;7.00;5.13;;;;;;;18.36;43.29;100251.16;5038616;28;20057;-80
2022/12/15 06:00:40;;;;;;;7.68;5.40;;;;;;;18.36;43.21;100255.69;5038224;28;20049;-80
2022/12/15 06:03:08;;;;;;;6.20;4.82;;;;;;;18.35;43.20;100268.25;5038604;28;20049;-80
2022/12/15 06:05:35;;;;;;;7.32;5.60;;;;;;;18.35;43.30;100270.91;5037995;28;20535;-80
2022/12/15 06:08:02;;;;;;;8.98;4.82;;;;;;;18.35;43.23;100270.91;5038453;28;20049;-79
2022/12/15 06:10:30;;;;;;;5.18;4.20;;;;;;;18.36;43.20;100282.47;5038745;28;20056;-80
2022/12/15 06:12:57;;;;;;;5.63;4.85;;;;;;;18.35;43.13;100286.13;5038026;28;20050;-79
2022/12/15 06:15:24;;;;;;;6.72;5.57;;;;;;;18.35;43.26;100288.81;5038749;28;20052;-81
2022/12/15 06:17:54;;;;;;;8.20;5.15;;;;;;;18.35;43.12;100303.06;5037822;28;20053;-80
2022/12/15 06:20:21;;;;;;;8.52;5.60;;;;;;;18.34;43.28;100287.13;5038347;28;20053;-80
2022/12/15 06:22:49;;;;;;;6.53;4.82;;;;;;;18.35;43.24;100283.44;5037304;28;20053;-80
2022/12/15 06:25:16;;;;;;;9.55;5.55;;;;;;;18.34;43.21;100287.13;5038519;28;20072;-80
2022/12/15 06:27:44;;;;;;;6.13;4.80;;;;;;;18.33;43.24;100283.59;5038447;28;20048;-80
2022/12/15 06:30:11;;;;;;;6.68;5.53;;;;;;;18.33;43.43;100291.63;5038974;28;20053;-78
2022/12/15 06:32:39;;;;;;;7.03;5.35;;;;;;;18.33;43.24;100294.31;5037504;28;20061;-81
2022/12/15 06:35:07;;;;;;;8.48;5.82;;;;;;;18.34;43.25;100281.75;5038016;28;20046;-80
2022/12/15 06:37:34;;;;;;;6.30;4.82;;;;;;;18.34;43.10;100287.13;5037757;28;20053;-81
2022/12/15 06:40:02;;;;;;;5.80;4.38;;;;;;;18.33;43.33;100290.78;5038829;28;20056;-80
2022/12/15 06:42:29;;;;;;;6.45;4.97;;;;;;;18.33;43.37;100293.47;5038136;28;20102;-81
2022/12/15 06:44:56;;;;;;;5.85;4.53;;;;;;;18.33;43.28;100288.13;5037718;28;20041;-80
2022/12/15 06:47:23;;;;;;;5.93;4.55;;;;;;;18.33;43.54;100293.47;5037909;28;20045;-81
2022/12/15 06:49:51;;;;;;;7.32;4.85;;;;;;;18.32;43.32;100298.00;5039133;28;20060;-80
2022/12/15 06:52:18;;;;;;;5.32;4.68;;;;;;;18.32;43.36;100291.78;5038171;28;20046;-80
2022/12/15 06:54:45;;;;;;;8.02;5.03;;;;;;;18.32;43.30;100302.50;5038354;28;20045;-80
2022/12/15 06:57:13;;;;;;;7.05;4.45;;;;;;;18.32;43.25;100323.94;5039277;28;20056;-80
2022/12/15 06:59:40;;;;;;;6.75;4.80;;;;;;;18.31;43.31;100324.91;5035908;28;20061;-79
2022/12/15 07:02:17;;;;;;;6.07;5.13;;;;;;;18.29;43.07;100315.19;5037709;28;20489;-81
2022/12/15 07:04:53;;;;;;;7.28;5.80;;;;;;;18.30;43.20;100307.97;5036100;28;20057;-80
2022/12/15 07:07:20;;;;;;;6.45;4.75;;;;;;;18.29;43.14;100308.97;5037623;28;20053;-83
2022/12/15 07:09:47;;;;;;;9.50;4.72;;;;;;;18.29;43.26;100300.94;5037363;28;20053;-81
2022/12/15 07:12:15;;;;;;;6.55;5.07;;;;;;;18.29;43.16;100306.28;5035842;28;20065;-84
2022/12/15 07:14:42;;;;;;;8.15;4.97;;;;;;;18.29;43.33;100306.28;5042026;28;20037;-81
2022/12/15 07:17:19;;;;;;;9.18;5.47;;;;;;;18.31;43.35;100322.22;5056667;28;20064;-82
2022/12/15 07:19:46;;;;;;;5.38;4.70;;;;;;;18.31;43.20;100332.94;5056725;28;20501;-81
2022/12/15 07:22:13;;;;;;;6.93;5.07;;;;;;;18.31;43.25;100339.19;5056252;28;20041;-81
2022/12/15 07:24:40;;;;;;;7.03;5.18;;;;;;;18.31;43.15;100339.19;5055264;28;20041;-81
2022/12/15 07:27:08;;;;;;;6.57;4.82;;;;;;;18.32;43.05;100340.03;5056708;28;20052;-78
2022/12/15 07:29:35;;;;;;;7.88;5.15;;;;;;;18.33;43.09;100352.44;5055465;28;20064;-78
2022/12/15 07:32:03;;;;;;;6.10;4.95;;;;;;;18.31;43.24;100355.25;5056658;28;20053;-90
2022/12/15 07:34:31;;;;;;;5.78;4.68;;;;;;;18.32;43.19;100346.22;5040150;28;20505;-83
2022/12/15 07:36:58;;;;;;;7.10;5.20;;;;;;;18.32;42.98;100332.81;5057267;28;20052;-82
2022/12/15 07:39:26;;;;;;;5.82;4.80;;;;;;;18.32;42.91;100334.66;5056978;28;20052;-82
2022/12/15 07:41:53;;;;;;;6.25;4.97;;;;;;;18.33;42.92;100339.03;5057791;28;20045;-82
2022/12/15 07:44:20;;;;;;;7.63;5.20;;;;;;;18.32;43.00;100337.34;5057626;28;20049;-83
2022/12/15 07:46:48;;;;;;;5.82;4.63;;;;;;;18.31;43.07;100352.56;5039675;28;20057;-83
2022/12/15 07:49:16;;;;;;;6.80;5.53;;;;;;;18.30;43.00;100348.19;5057376;28;20049;-83
2022/12/15 07:51:43;;;;;;;8.27;4.97;;;;;;;18.29;42.81;100331.25;5055719;28;20404;-85
2022/12/15 07:54:13;;;;;;;7.30;4.97;;;;;;;18.30;42.88;100334.78;5055362;28;20060;-85
2022/12/15 07:56:41;;;;;;;5.97;4.75;;;;;;;18.30;42.91;100337.47;5056693;28;20056;-86
2022/12/15 07:59:08;;;;;;;6.75;5.15;;;;;;;18.29;42.89;100346.50;5056051;28;20049;-86
2022/12/15 08:01:36;;;;;;;6.03;4.65;;;;;;;18.29;42.91;100354.53;5055426;28;20057;-86
2022/12/15 08:04:03;;;;;;;6.10;4.80;;;;;;;18.28;42.75;100356.38;5055444;28;20056;-83
2022/12/15 08:06:31;;;;;;;7.55;5.22;;;;;;;18.28;43.03;100348.31;5056517;28;20052;-82
2022/12/15 08:08:58;;;;;;;5.78;4.88;;;;;;;18.28;43.05;100360.88;5055794;28;20048;-82
2022/12/15 08:11:26;;;;;;;8.95;4.97;;;;;;;18.28;43.18;100372.44;5054812;28;20045;-81
2022/12/15 08:13:53;;;;;;;5.85;4.30;;;;;;;18.28;42.93;100383.16;5054274;28;20052;-86
2022/12/15 08:16:33;;;;;;;8.38;5.38;;;;;;;18.28;42.80;100383.16;5055866;28;20070;-86
2022/12/15 08:19:02;;;;;;;9.10;5.53;;;;;;;18.28;42.83;100390.34;5055864;28;20049;-85
2022/12/15 08:21:31;;;;;;;6.38;5.30;;;;;;;18.27;42.86;100392.19;5055173;28;20053;-86
2022/12/15 08:24:01;;;;;;;5.50;4.75;;;;;;;18.26;42.85;100395.81;5055730;28;20041;-86
2022/12/15 08:26:28;;;;;;;6.45;4.97;;;;;;;18.26;42.99;100401.19;5054433;28;20040;-82
2022/12/15 08:29:02;;;;;;;7.72;5.18;;;;;;;18.26;43.12;100405.69;5050376;28;20037;-85
2022/12/15 08:31:50;;;;;;;8.50;5.57;;;;;;;18.27;43.18;100410.06;5034984;28;20049;-82
2022/12/15 08:34:17;;;;;;;7.45;5.35;;;;;;;18.27;43.19;100408.25;5034119;28;20397;-81
2022/12/15 08:36:45;;;;;;;9.68;6.57;;;;;;;18.26;42.21;100411.91;5034672;28;20049;-82
2022/12/15 08:39:12;;;;;;;9.27;8.35;;;;;;;18.25;41.48;100415.56;5032936;28;20504;-82
2022/12/15 08:41:40;;;;;;;12.75;9.15;;;;;;;18.24;41.22;100413.88;5035191;28;20053;-83
2022/12/15 08:44:08;;;;;;;11.23;8.98;;;;;;;18.22;40.79;100412.31;5034679;28;20054;-83
2022/12/15 08:46:35;;;;;;;11.40;9.25;;;;;;;18.21;40.72;100416.81;5035848;28;20473;-82
2022/12/15 08:49:03;;;;;;;13.13;10.13;;;;;;;18.19;40.56;100418.81;5035359;28;20045;-82
2022/12/15 08:51:31;;;;;;;11.18;9.95;;;;;;;18.18;40.51;100419.78;5035734;28;20053;-83
2022/12/15 08:53:59;;;;;;;13.18;10.10;;;;;;;18.17;40.38;100415.41;5034693;28;20056;-81
2022/12/15 08:56:28;;;;;;;12.63;10.63;;;;;;;18.17;40.29;100411.88;5034581;28;20049;-81
2022/12/15 08:58:58;;;;;;;13.57;10.90;;;;;;;18.16;40.09;100413.72;5034647;28;20057;-81
2022/12/15 09:01:29;;;;;;;14.93;10.18;;;;;;;18.15;40.15;100416.50;5034535;28;20052;-81
2022/12/15 09:03:58;;;;;;;11.20;8.73;;;;;;;18.13;41.00;100405.94;5034297;28;20485;-83
2022/12/15 09:06:31;;;;;;;9.43;7.82;;;;;;;18.14;41.72;100410.31;5033899;28;20038;-83
2022/12/15 09:09:01;;;;;;;8.38;6.97;;;;;;;18.15;41.87;100420.06;5034452;28;20042;-80
2022/12/15 09:11:29;;;;;;;11.18;8.18;;;;;;;18.15;41.71;100425.41;5033760;28;20042;-84
2022/12/15 09:13:57;;;;;;;10.98;8.27;;;;;;;18.17;41.76;100438.66;5033668;28;20050;-82
2022/12/15 09:16:26;;;;;;;9.52;6.97;;;;;;;18.17;41.71;100441.34;5033820;28;20049;-83
2022/12/15 09:18:57;;;;;;;11.38;6.47;;;;;;;18.18;41.84;100449.25;5032222;28;20049;-83
2022/12/15 09:21:27;;;;;;;9.45;6.95;;;;;;;18.19;41.77;100434.00;5032045;28;20060;-80
2022/12/15 09:23:59;;;;;;;9.65;6.93;;;;;;;18.19;41.68;100442.91;5034596;28;20057;-82
2022/12/15 09:26:32;;;;;;;9.60;6.40;;;;;;;18.19;41.96;100424.16;5017471;28;20052;-82
2022/12/15 09:29:00;;;;;;;7.78;6.20;;;;;;;18.18;41.76;100425.13;5033575;28;20060;-85
2022/12/15 09:31:31;;;;;;;7.53;6.38;;;;;;;18.18;41.71;100425.13;5033486;28;20052;-82
2022/12/15 09:34:00;;;;;;;7.45;6.63;;;;;;;18.19;42.01;100421.50;5034008;28;20045;-82
2022/12/15 09:36:29;;;;;;;8.23;5.82;;;;;;;18.18;42.04;100400.16;5034345;28;20396;-83
2022/12/15 09:38:57;;;;;;;7.40;6.05;;;;;;;18.18;41.90;100398.34;5032377;28;20053;-83
2022/12/15 09:41:33;;;;;;;7.28;5.47;;;;;;;18.18;42.02;100394.81;5034035;28;20052;-83
2022/12/15 09:44:23;;;;;;;7.97;6.22;;;;;;;18.18;42.12;100392.97;5033283;28;20052;-82
2022/12/15 09:46:50;;;;;;;7.57;5.75;;;;;;;18.19;42.04;100381.31;5033948;28;20052;-81
2022/12/15 09:49:36;;;;;;;7.95;6.38;;;;;;;18.18;42.06;100387.63;5034149;28;20045;-81
2022/12/15 09:52:06;;;;;;;;;;;;;;;18.19;42.10;100396.50;5033525;28;20052;-81
2022/12/15 09:54:40;;;;;;;7.05;5.95;;;;;;;18.19;41.99;100399.19;5033447;28;19921;-81
2022/12/15 09:57:23;;;;;;;12.02;6.70;;;;;;;18.18;42.17;100387.63;5033225;28;20485;-81
2022/12/15 10:00:16;;;;;;;8.27;6.15;;;;;;;18.18;42.07;100384.94;5032271;28;20068;-81
2022/12/15 10:02:59;;;;;;;8.10;6.22;;;;;;;18.19;42.08;100369.72;5033584;28;20065;-81
2022/12/15 10:05:48;;;;;;;8.40;6.32;;;;;;;18.18;42.07;100368.88;5033874;28;20049;-82
2022/12/15 10:08:39;;;;;;;8.93;5.70;;;;;;;18.17;42.21;100372.53;5032792;28;20053;-83
2022/12/15 10:11:23;;;;;;;6.30;5.47;;;;;;;18.17;42.06;100375.22;5033716;28;20107;-82
2022/12/15 10:13:56;;;;;;;7.90;5.78;;;;;;;18.17;42.29;100380.56;5033323;28;20435;-82
2022/12/15 10:16:26;;;;;;;7.00;5.80;;;;;;;18.18;42.28;100378.72;5049339;28;20060;-82
2022/12/15 10:19:03;;;;;;;7.75;6.28;;;;;;;18.17;42.23;100380.56;5032306;28;20053;-81
2022/12/15 10:21:31;;;;;;;7.28;5.80;;;;;;;18.18;42.20;100392.13;5033938;28;20060;-80
2022/12/15 10:24:27;;;;;;;9.52;6.55;;;;;;;18.17;42.28;100387.75;5033340;28;20056;-79
2022/12/15 10:27:42;;;;;;;7.32;5.60;;;;;;;18.17;42.07;100380.56;5033140;28;20054;-79
2022/12/15 10:30:12;;;;;;;8.27;6.63;;;;;;;18.16;42.10;100370.84;5036906;28;20049;-79
2022/12/15 10:32:50;;;;;;;8.70;6.63;;;;;;;18.16;42.11;100365.50;5036722;28;20057;-79
2022/12/15 10:35:28;;;;;;;9.10;6.55;;;;;;;18.16;42.25;100356.59;5036963;28;20045;-80
2022/12/15 10:38:04;;;;;;;7.97;6.35;;;;;;;18.16;42.24;100354.78;5036492;28;20041;-80
2022/12/15 10:40:48;;;;;;;8.48;6.32;;;;;;;18.16;42.22;100336.03;5036586;28;20513;-80
2022/12/15 10:43:38;;;;;;;7.88;6.47;;;;;;;18.15;42.16;100336.13;5035823;28;20045;-79
2022/12/15 10:46:17;;;;;;;9.35;6.88;;;;;;;18.15;42.26;100339.69;5036440;28;20049;-79
2022/12/15 10:48:48;;;;;;;9.55;6.70;;;;;;;18.14;42.20;100343.31;5036338;28;20076;-79
2022/12/15 10:51:41;;;;;;;7.68;6.30;;;;;;;18.14;42.18;100345.16;5036541;28;20068;-79
2022/12/15 10:54:08;;;;;;;7.28;6.22;;;;;;;18.14;42.16;100348.69;5036378;28;20455;-79
2022/12/15 10:56:48;;;;;;;8.20;6.13;;;;;;;18.15;42.13;100334.34;5036382;28;20041;-79
2022/12/15 10:59:32;;;;;;;9.13;6.18;;;;;;;18.14;42.13;100323.72;5036402;28;20060;-79
2022/12/15 11:02:26;;;;;;;8.48;6.60;;;;;;;18.14;42.12;100315.69;5036313;28;20049;-79
2022/12/15 11:04:53;;;;;;;;;;;;;;;18.13;42.31;100312.19;5036739;28;20046;-79
2022/12/15 11:07:22;;;;;;;7.55;5.88;;;;;;;18.13;42.19;100292.56;5035776;28;19921;-79
2022/12/15 11:09:59;;;;;;;7.93;6.30;;;;;;;18.13;42.24;100293.41;5034613;28;20061;-79
2022/12/15 11:15:22;;;;;;;8.15;6.30;;;;;;;18.14;42.29;100307.66;5035954;28;20060;-79
2022/12/15 11:18:19;;;;;;;8.40;5.88;;;;;;;18.13;42.24;100301.47;5035434;28;20492;-79
2022/12/15 11:20:57;;;;;;;9.27;6.15;;;;;;;18.14;42.37;100280.88;5034986;28;20080;-78
2022/12/15 11:23:34;;;;;;;7.72;5.95;;;;;;;18.12;42.56;100289.06;5034405;28;20440;-78
2022/12/15 11:26:17;;;;;;;8.43;6.45;;;;;;;18.13;42.29;100276.50;5034490;28;20060;-79
2022/12/15 11:28:51;;;;;;;8.07;6.72;;;;;;;18.12;42.38;100258.75;5035253;28;20484;-78
2022/12/15 11:31:25;;;;;;;9.00;6.82;;;;;;;18.12;42.32;100262.28;5035456;28;20064;-79
2022/12/15 11:33:53;;;;;;;7.50;5.80;;;;;;;18.13;42.16;100265.78;5035361;28;20484;-79
2022/12/15 11:36:46;;;;;;;8.02;5.55;;;;;;;18.12;42.36;100267.63;5035410;28;20049;-78
2022/12/15 11:39:14;;;;;;;7.65;6.40;;;;;;;18.12;42.26;100267.63;5035144;28;20045;-78
2022/12/15 11:42:03;;;;;;;8.00;6.47;;;;;;;18.12;42.23;100262.28;5035026;28;20049;-78
2022/12/15 11:44:43;;;;;;;9.10;6.55;;;;;;;18.10;42.27;100250.81;5035153;28;20049;-80
2022/12/15 11:47:43;;;;;;;8.02;6.20;;;;;;;18.10;42.52;100234.75;5035315;28;20056;-79
2022/12/15 11:50:24;;;;;;;7.70;6.13;;;;;;;18.10;42.45;100237.44;5034615;28;20052;-78
2022/12/15 11:53:16;;;;;;;9.00;6.68;;;;;;;18.11;42.68;100238.28;5034856;28;20535;-79
2022/12/15 11:55:58;;;;;;;9.30;7.05;;;;;;;18.11;42.53;100233.78;5034933;28;20042;-79
2022/12/15 11:58:30;;;;;;;9.88;6.30;;;;;;;18.11;42.56;100222.22;5034939;28;20049;-79
2022/12/15 12:01:04;;;;;;;8.98;6.90;;;;;;;18.12;42.56;100218.56;5035250;28;20045;-80
2022/12/15 12:03:35;;;;;;;;;;;;;;;18.11;42.58;100224.88;5034364;28;20049;-80
2022/12/15 12:06:34;;;;;;;7.22;6.32;;;;;;;18.11;42.39;100235.59;5034807;28;19921;-80
2022/12/15 12:09:30;;;;;;;7.88;6.55;;;;;;;18.10;42.56;100213.31;4993642;28;20058;-79
2022/12/15 12:12:19;;;;;;;7.90;6.47;;;;;;;18.10;42.80;100216.00;4987992;28;20063;-79
2022/12/15 12:14:49;;;;;;;7.82;6.53;;;;;;;18.12;42.86;100216.72;4991707;28;20073;-80
2022/12/15 12:17:27;;;;;;;8.85;6.68;;;;;;;18.11;43.02;100200.78;4977037;28;20054;-80
2022/12/15 12:19:59;;;;;;;8.35;6.40;;;;;;;18.11;42.80;100200.78;4993148;28;20549;-80
2022/12/15 12:22:36;;;;;;;9.88;6.55;;;;;;;18.11;42.93;100212.38;4977669;28;20157;-80
2022/12/15 12:25:11;;;;;;;8.02;6.68;;;;;;;18.11;42.83;100207.00;4978228;28;20050;-79
2022/12/15 12:27:53;;;;;;;8.65;6.97;;;;;;;18.11;42.73;100204.31;4993383;28;20154;-80
2022/12/15 12:30:24;;;;;;;8.70;6.85;;;;;;;18.12;42.82;100207.84;4976979;28;20426;-80
2022/12/15 12:33:01;;;;;;;7.57;6.07;;;;;;;18.11;43.01;100217.72;4976877;28;20525;-80
2022/12/15 12:35:39;;;;;;;8.85;6.68;;;;;;;18.11;42.92;100211.50;4976073;28;20069;-80
2022/12/15 12:38:11;;;;;;;9.32;6.07;;;;;;;18.10;42.82;100205.28;4976356;28;20050;-80
2022/12/15 12:40:45;;;;;;;8.07;6.32;;;;;;;18.11;42.90;100214.16;4992752;28;20058;-80
2022/12/15 12:43:32;;;;;;;10.20;6.28;;;;;;;18.11;42.82;100207.00;4993082;28;20056;-80
2022/12/15 12:46:25;;;;;;;12.50;8.38;;;;;;;18.12;42.08;100213.22;5009322;28;20076;-79
2022/12/15 12:49:06;;;;;;;8.18;6.85;;;;;;;18.10;42.61;100207.97;5032895;28;20057;-79
2022/12/15 12:51:39;;;;;;;7.72;5.70;;;;;;;18.11;42.92;100201.66;5033797;28;20072;-81
2022/12/15 12:54:29;;;;;;;9.30;7.40;;;;;;;18.10;43.01;100199.94;5049253;28;20428;-79
2022/12/15 12:56:57;;;;;;;8.73;6.28;;;;;;;18.09;42.68;100195.56;5033923;28;20046;-78
2022/12/15 12:59:27;;;;;;;8.43;6.28;;;;;;;18.10;42.64;100183.03;5032129;28;20215;-78
2022/12/15 13:02:32;;;;;;;11.25;7.47;;;;;;;18.09;42.74;100176.81;5033363;28;20060;-78
2022/12/15 13:05:21;;;;;;;9.25;6.97;;;;;;;18.08;42.47;100175.13;5032266;28;20049;-78
2022/12/15 13:08:16;;;;;;;9.80;7.20;;;;;;;18.09;42.43;100168.78;5022632;28;20497;-78
2022/12/15 13:10:45;;;;;;;9.07;6.63;;;;;;;18.08;42.42;100172.47;5033381;28;20485;-78
2022/12/15 13:13:29;;;;;;;8.75;6.65;;;;;;;18.07;42.44;100167.22;5034174;28;20404;-77
2022/12/15 13:16:09;;;;;;;9.73;7.28;;;;;;;18.07;42.38;100176.13;5033789;28;20376;-78
2022/12/15 13:18:55;;;;;;;10.32;6.38;;;;;;;18.08;42.39;100180.50;5033453;28;20052;-78
2022/12/15 13:21:53;;;;;;;9.70;6.80;;;;;;;18.07;42.35;100185.97;5032936;28;20057;-78
2022/12/15 13:24:36;;;;;;;9.90;6.88;;;;;;;18.06;42.46;100189.63;5033099;28;20068;-78
2022/12/15 13:27:18;;;;;;;8.82;6.15;;;;;;;18.06;42.44;100189.63;5034438;28;20050;-78
2022/12/15 13:30:01;;;;;;;9.48;7.18;;;;;;;18.06;42.49;100192.31;5033989;28;20052;-78
2022/12/15 13:32:33;;;;;;;8.20;7.05;;;;;;;18.06;42.55;100187.81;5034185;28;20053;-78
2022/12/15 13:35:20;;;;;;;7.63;6.45;;;;;;;18.05;42.53;100167.38;5035440;28;20058;-79
2022/12/15 13:37:49;;;;;;;8.95;6.50;;;;;;;18.06;42.60;100166.38;5034083;28;20050;-79
2022/12/15 13:40:38;;;;;;;7.10;5.75;;;;;;;18.05;42.64;100162.00;5034454;28;20492;-77
2022/12/15 13:43:05;;;;;;;7.90;5.53;;;;;;;18.04;42.64;100166.53;5033517;28;20140;-78
2022/12/15 13:45:45;;;;;;;8.77;6.18;;;;;;;18.05;42.63;100167.38;5034523;28;20037;-78
2022/12/15 13:48:52;;;;;;;7.30;6.45;;;;;;;18.04;42.77;100166.53;5033922;28;20043;-78
2022/12/15 13:51:44;;;;;;;8.13;6.23;;;;;;;18.04;42.81;100157.66;5032078;28;20080;-78
2022/12/15 13:54:22;;;;;;;8.85;6.03;;;;;;;18.04;42.62;100160.31;5034233;28;20048;-77
2022/12/15 13:57:11;;;;;;;8.02;6.03;;;;;;;18.04;42.62;100158.50;5032744;28;20056;-77
2022/12/15 13:59:39;;;;;;;8.35;6.20;;;;;;;18.03;42.67;100138.06;5033128;28;20408;-77
2022/12/15 14:02:26;;;;;;;6.55;5.70;;;;;;;18.03;42.63;100129.19;5033496;28;20057;-77
2022/12/15 14:05:11;;;;;;;8.70;6.80;;;;;;;18.03;42.73;100127.34;5036998;28;20045;-78
2022/12/15 14:07:41;;;;;;;9.60;5.78;;;;;;;18.02;42.77;100117.59;5037867;28;20045;-77
2022/12/15 14:10:18;;;;;;;7.90;6.70;;;;;;;18.01;42.60;100112.38;5036723;28;20041;-77
2022/12/15 14:12:48;;;;;;;8.50;6.35;;;;;;;18.02;42.88;100111.41;5036955;28;20527;-77
2022/12/15 14:15:24;;;;;;;8.90;5.60;;;;;;;18.02;42.69;100104.19;5037500;28;20060;-77
2022/12/15 14:17:54;;;;;;;7.47;5.45;;;;;;;18.02;42.70;100119.44;5037416;28;20495;-78
2022/12/15 14:20:25;;;;;;;8.38;6.20;;;;;;;18.02;42.71;100125.63;5035833;28;20053;-78
2022/12/15 14:22:53;;;;;;;7.05;6.05;;;;;;;18.02;42.81;100122.94;5037340;28;20060;-78
2022/12/15 14:25:28;;;;;;;8.13;6.05;;;;;;;18.02;42.59;100114.06;5036696;28;20045;-77
2022/12/15 14:27:56;;;;;;;7.60;6.13;;;;;;;18.02;42.79;100120.28;5036494;28;20038;-78